sensor_id;sensor_type;location;lat;lon;timestamp;P1;P2;P0
68713;PMS7003;55690;51.566;19.198;2023-03-31T00:00:17;12;4;3
68713;PMS7003;55690;51.566;19.198;2023-03-31T00:04:23;2;1;0
68713;PMS7003;55690;51.566;19.198;2023-03-31T00:08:29;9;2;2
68713;PMS7003;55690;51.566;19.198;2023-03-31T00:12:35;1;0;0
68713;PMS7003;55690;51.566;19.198;2023-03-31T00:16:41;5;3;2
68713;PMS7003;55690;51.566;19.198;2023-03-31T00:20:47;3;2;2
68713;PMS7003;55690;51.566;19.198;2023-03-31T00:24:54;5;1;1
68713;PMS7003;55690;51.566;19.198;2023-03-31T00:29:00;2;2;1
68713;PMS7003;55690;51.566;19.198;2023-03-31T00:33:06;3;3;1
68713;PMS7003;55690;51.566;19.198;2023-03-31T00:37:12;1;1;1
68713;PMS7003;55690;51.566;19.198;2023-03-31T00:41:18;4;0;0
68713;PMS7003;55690;51.566;19.198;2023-03-31T00:45:26;1;1;1
68713;PMS7003;55690;51.566;19.198;2023-03-31T00:49:34;4;2;2
68713;PMS7003;55690;51.566;19.198;2023-03-31T00:53:40;0;0;0
68713;PMS7003;55690;51.566;19.198;2023-03-31T00:57:44;2;2;1
68713;PMS7003;55690;51.566;19.198;2023-03-31T01:01:49;7;3;3
68713;PMS7003;55690;51.566;19.198;2023-03-31T01:10:05;0;0;0
68713;PMS7003;55690;51.566;19.198;2023-03-31T01:14:08;10;2;2
68713;PMS7003;55690;51.566;19.198;2023-03-31T01:18:14;3;3;1
68713;PMS7003;55690;51.566;19.198;2023-03-31T01:35:09;2;1;1
68713;PMS7003;55690;51.566;19.198;2023-03-31T01:47:54;2;1;1
68713;PMS7003;55690;51.566;19.198;2023-03-31T01:52:02;4;2;2
68713;PMS7003;55690;51.566;19.198;2023-03-31T02:00:30;2;2;1
68713;PMS7003;55690;51.566;19.198;2023-03-31T02:04:38;1;1;0
68713;PMS7003;55690;51.566;19.198;2023-03-31T02:08:48;1;1;1
68713;PMS7003;55690;51.566;19.198;2023-03-31T02:12:54;4;3;2
68713;PMS7003;55690;51.566;19.198;2023-03-31T02:16:57;2;2;0
68713;PMS7003;55690;51.566;19.198;2023-03-31T02:21:04;4;2;2
68713;PMS7003;55690;51.566;19.198;2023-03-31T02:25:09;3;1;0
68713;PMS7003;55690;51.566;19.198;2023-03-31T02:29:15;2;1;1
68713;PMS7003;55690;51.566;19.198;2023-03-31T02:33:17;6;1;1
68713;PMS7003;55690;51.566;19.198;2023-03-31T02:37:19;3;1;1
68713;PMS7003;55690;51.566;19.198;2023-03-31T02:41:21;1;1;0
68713;PMS7003;55690;51.566;19.198;2023-03-31T02:49:37;1;1;1
68713;PMS7003;55690;51.566;19.198;2023-03-31T02:54:04;5;5;3
68713;PMS7003;55690;51.566;19.198;2023-03-31T03:06:29;4;2;2
68713;PMS7003;55690;51.566;19.198;2023-03-31T03:14:59;2;2;1
68713;PMS7003;55690;51.566;19.198;2023-03-31T03:19:07;2;2;2
68713;PMS7003;55690;51.566;19.198;2023-03-31T03:23:09;1;1;1
68713;PMS7003;55690;51.566;19.198;2023-03-31T03:27:10;1;1;1
68713;PMS7003;55690;51.566;19.198;2023-03-31T03:31:12;3;2;1
68713;PMS7003;55690;51.566;19.198;2023-03-31T03:35:15;3;2;2
68713;PMS7003;55690;51.566;19.198;2023-03-31T03:39:16;3;3;2
68713;PMS7003;55690;51.566;19.198;2023-03-31T03:43:18;6;3;2
68713;PMS7003;55690;51.566;19.198;2023-03-31T03:47:19;0;0;0
68713;PMS7003;55690;51.566;19.198;2023-03-31T03:51:21;2;2;2
68713;PMS7003;55690;51.566;19.198;2023-03-31T03:55:23;3;3;2
68713;PMS7003;55690;51.566;19.198;2023-03-31T03:59:26;2;2;2
68713;PMS7003;55690;51.566;19.198;2023-03-31T04:03:27;5;4;3
68713;PMS7003;55690;51.566;19.198;2023-03-31T04:07:28;7;3;2
68713;PMS7003;55690;51.566;19.198;2023-03-31T04:11:30;3;2;1
68713;PMS7003;55690;51.566;19.198;2023-03-31T04:15:32;5;3;1
68713;PMS7003;55690;51.566;19.198;2023-03-31T04:19:33;6;4;4
68713;PMS7003;55690;51.566;19.198;2023-03-31T04:23:35;1;1;0
68713;PMS7003;55690;51.566;19.198;2023-03-31T04:27:46;3;2;2
68713;PMS7003;55690;51.566;19.198;2023-03-31T04:31:56;4;4;2
68713;PMS7003;55690;51.566;19.198;2023-03-31T04:35:59;3;3;3
68713;PMS7003;55690;51.566;19.198;2023-03-31T04:40:10;4;4;4
68713;PMS7003;55690;51.566;19.198;2023-03-31T04:44:12;9;3;3
68713;PMS7003;55690;51.566;19.198;2023-03-31T04:48:14;1;1;0
68713;PMS7003;55690;51.566;19.198;2023-03-31T04:52:15;5;2;2
68713;PMS7003;55690;51.566;19.198;2023-03-31T04:56:17;4;4;3
68713;PMS7003;55690;51.566;19.198;2023-03-31T05:00:19;1;1;1
68713;PMS7003;55690;51.566;19.198;2023-03-31T05:04:22;3;3;2
68713;PMS7003;55690;51.566;19.198;2023-03-31T05:08:23;2;2;2
68713;PMS7003;55690;51.566;19.198;2023-03-31T05:12:26;1;1;1
68713;PMS7003;55690;51.566;19.198;2023-03-31T05:16:28;1;1;1
68713;PMS7003;55690;51.566;19.198;2023-03-31T05:20:30;4;4;2
68713;PMS7003;55690;51.566;19.198;2023-03-31T05:24:31;4;4;3
68713;PMS7003;55690;51.566;19.198;2023-03-31T05:28:33;5;4;3
68713;PMS7003;55690;51.566;19.198;2023-03-31T05:32:37;2;2;2
68713;PMS7003;55690;51.566;19.198;2023-03-31T05:36:43;6;3;3
68713;PMS7003;55690;51.566;19.198;2023-03-31T05:40:49;2;2;2
68713;PMS7003;55690;51.566;19.198;2023-03-31T05:44:55;3;3;3
68713;PMS7003;55690;51.566;19.198;2023-03-31T05:49:01;1;1;1
68713;PMS7003;55690;51.566;19.198;2023-03-31T05:53:07;3;2;2
68713;PMS7003;55690;51.566;19.198;2023-03-31T05:57:14;5;3;3
68713;PMS7003;55690;51.566;19.198;2023-03-31T06:01:20;3;3;2
68713;PMS7003;55690;51.566;19.198;2023-03-31T06:05:26;14;5;3
68713;PMS7003;55690;51.566;19.198;2023-03-31T06:09:32;9;2;1
68713;PMS7003;55690;51.566;19.198;2023-03-31T06:13:38;3;1;1
68713;PMS7003;55690;51.566;19.198;2023-03-31T06:17:45;2;2;1
68713;PMS7003;55690;51.566;19.198;2023-03-31T06:21:51;8;4;1
68713;PMS7003;55690;51.566;19.198;2023-03-31T06:26:01;2;2;2
68713;PMS7003;55690;51.566;19.198;2023-03-31T06:30:06;4;2;2
68713;PMS7003;55690;51.566;19.198;2023-03-31T06:34:10;4;4;3
68713;PMS7003;55690;51.566;19.198;2023-03-31T06:38:15;3;3;1
68713;PMS7003;55690;51.566;19.198;2023-03-31T06:42:22;3;3;2
68713;PMS7003;55690;51.566;19.198;2023-03-31T06:46:28;3;3;3
68713;PMS7003;55690;51.566;19.198;2023-03-31T06:50:36;2;2;2
68713;PMS7003;55690;51.566;19.198;2023-03-31T06:54:40;6;4;3
68713;PMS7003;55690;51.566;19.198;2023-03-31T06:58:46;4;4;2
68713;PMS7003;55690;51.566;19.198;2023-03-31T07:02:53;4;4;3
68713;PMS7003;55690;51.566;19.198;2023-03-31T07:06:59;7;2;2
68713;PMS7003;55690;51.566;19.198;2023-03-31T07:11:06;6;4;3
68713;PMS7003;55690;51.566;19.198;2023-03-31T07:15:11;4;4;3
68713;PMS7003;55690;51.566;19.198;2023-03-31T07:19:18;16;9;5
68713;PMS7003;55690;51.566;19.198;2023-03-31T07:23:24;12;5;4
68713;PMS7003;55690;51.566;19.198;2023-03-31T07:27:30;5;4;3
68713;PMS7003;55690;51.566;19.198;2023-03-31T07:31:36;7;7;4
68713;PMS7003;55690;51.566;19.198;2023-03-31T07:35:43;11;6;6
68713;PMS7003;55690;51.566;19.198;2023-03-31T08:01:40;4;4;4
68713;PMS7003;55690;51.566;19.198;2023-03-31T08:05:44;4;3;2
68713;PMS7003;55690;51.566;19.198;2023-03-31T08:09:47;3;3;3
68713;PMS7003;55690;51.566;19.198;2023-03-31T08:13:51;8;4;3
68713;PMS7003;55690;51.566;19.198;2023-03-31T08:17:53;4;4;4
68713;PMS7003;55690;51.566;19.198;2023-03-31T08:21:55;4;4;4
68713;PMS7003;55690;51.566;19.198;2023-03-31T08:30:12;6;4;2
68713;PMS7003;55690;51.566;19.198;2023-03-31T08:34:16;7;7;5
68713;PMS7003;55690;51.566;19.198;2023-03-31T10:01:06;2;2;1
68713;PMS7003;55690;51.566;19.198;2023-03-31T10:09:44;4;3;2
68713;PMS7003;55690;51.566;19.198;2023-03-31T10:14:09;3;1;0
68713;PMS7003;55690;51.566;19.198;2023-03-31T10:18:39;6;2;2
68713;PMS7003;55690;51.566;19.198;2023-03-31T10:23:03;2;1;1
68713;PMS7003;55690;51.566;19.198;2023-03-31T10:27:19;1;1;1
68713;PMS7003;55690;51.566;19.198;2023-03-31T10:35:06;5;3;2
68713;PMS7003;55690;51.566;19.198;2023-03-31T10:47:54;1;1;0
68713;PMS7003;55690;51.566;19.198;2023-03-31T10:51:59;2;2;2
68713;PMS7003;55690;51.566;19.198;2023-03-31T11:00:26;6;3;3
68713;PMS7003;55690;51.566;19.198;2023-03-31T11:13:03;1;1;1
68713;PMS7003;55690;51.566;19.198;2023-03-31T11:25:38;1;1;1
68713;PMS7003;55690;51.566;19.198;2023-03-31T11:34:07;1;1;1
68713;PMS7003;55690;51.566;19.198;2023-03-31T11:42:32;1;1;1
68713;PMS7003;55690;51.566;19.198;2023-03-31T11:50:53;0;0;0
68713;PMS7003;55690;51.566;19.198;2023-03-31T11:59:15;0;0;0
68713;PMS7003;55690;51.566;19.198;2023-03-31T12:16:02;1;1;0
68713;PMS7003;55690;51.566;19.198;2023-03-31T12:20:16;0;0;0
68713;PMS7003;55690;51.566;19.198;2023-03-31T12:24:27;0;0;0
68713;PMS7003;55690;51.566;19.198;2023-03-31T12:28:31;1;0;0
68713;PMS7003;55690;51.566;19.198;2023-03-31T12:45:20;1;1;1
68713;PMS7003;55690;51.566;19.198;2023-03-31T12:53:55;2;2;1
68713;PMS7003;55690;51.566;19.198;2023-03-31T13:11:18;0;0;0
68713;PMS7003;55690;51.566;19.198;2023-03-31T13:14:52;1;0;0
68713;PMS7003;55690;51.566;19.198;2023-03-31T13:18:59;1;1;1
68713;PMS7003;55690;51.566;19.198;2023-03-31T13:23:03;1;1;1
68713;PMS7003;55690;51.566;19.198;2023-03-31T13:27:29;2;2;2
68713;PMS7003;55690;51.566;19.198;2023-03-31T13:31:26;3;2;2
68713;PMS7003;55690;51.566;19.198;2023-03-31T13:35:38;0;0;0
68713;PMS7003;55690;51.566;19.198;2023-03-31T13:52:30;1;1;0
68713;PMS7003;55690;51.566;19.198;2023-03-31T14:00:55;3;1;1
68713;PMS7003;55690;51.566;19.198;2023-03-31T14:13:26;1;1;1
68713;PMS7003;55690;51.566;19.198;2023-03-31T14:17:32;9;2;2
68713;PMS7003;55690;51.566;19.198;2023-03-31T14:21:42;5;1;1
68713;PMS7003;55690;51.566;19.198;2023-03-31T14:25:58;2;0;0
68713;PMS7003;55690;51.566;19.198;2023-03-31T14:30:17;1;1;1
68713;PMS7003;55690;51.566;19.198;2023-03-31T14:38:36;1;1;0
68713;PMS7003;55690;51.566;19.198;2023-03-31T14:42:38;1;1;1
68713;PMS7003;55690;51.566;19.198;2023-03-31T14:46:47;1;1;0
68713;PMS7003;55690;51.566;19.198;2023-03-31T14:50:48;2;2;1
68713;PMS7003;55690;51.566;19.198;2023-03-31T14:54:51;0;0;0
68713;PMS7003;55690;51.566;19.198;2023-03-31T14:58:53;6;0;0
68713;PMS7003;55690;51.566;19.198;2023-03-31T15:02:56;0;0;0
68713;PMS7003;55690;51.566;19.198;2023-03-31T15:07:01;0;0;0
68713;PMS7003;55690;51.566;19.198;2023-03-31T15:11:09;0;0;0
68713;PMS7003;55690;51.566;19.198;2023-03-31T15:15:15;0;0;0
68713;PMS7003;55690;51.566;19.198;2023-03-31T15:19:20;0;0;0
68713;PMS7003;55690;51.566;19.198;2023-03-31T15:23:28;0;0;0
68713;PMS7003;55690;51.566;19.198;2023-03-31T15:27:36;0;0;0
68713;PMS7003;55690;51.566;19.198;2023-03-31T15:31:42;0;0;0
68713;PMS7003;55690;51.566;19.198;2023-03-31T15:35:44;0;0;0
68713;PMS7003;55690;51.566;19.198;2023-03-31T15:39:46;1;0;0
68713;PMS7003;55690;51.566;19.198;2023-03-31T15:44:02;0;0;0
68713;PMS7003;55690;51.566;19.198;2023-03-31T15:48:01;3;1;0
68713;PMS7003;55690;51.566;19.198;2023-03-31T15:52:15;0;0;0
68713;PMS7003;55690;51.566;19.198;2023-03-31T16:04:48;1;1;0
68713;PMS7003;55690;51.566;19.198;2023-03-31T16:08:57;1;1;1
68713;PMS7003;55690;51.566;19.198;2023-03-31T16:13:07;0;0;0
68713;PMS7003;55690;51.566;19.198;2023-03-31T16:17:21;0;0;0
68713;PMS7003;55690;51.566;19.198;2023-03-31T16:21:37;7;2;1
68713;PMS7003;55690;51.566;19.198;2023-03-31T16:25:41;0;0;0
68713;PMS7003;55690;51.566;19.198;2023-03-31T16:29:43;2;0;0
68713;PMS7003;55690;51.566;19.198;2023-03-31T16:33:54;0;0;0
68713;PMS7003;55690;51.566;19.198;2023-03-31T16:37:57;1;1;0
68713;PMS7003;55690;51.566;19.198;2023-03-31T16:42:01;0;0;0
68713;PMS7003;55690;51.566;19.198;2023-03-31T16:46:03;1;1;1
68713;PMS7003;55690;51.566;19.198;2023-03-31T16:50:05;0;0;0
68713;PMS7003;55690;51.566;19.198;2023-03-31T16:54:13;1;1;1
68713;PMS7003;55690;51.566;19.198;2023-03-31T16:58:15;0;0;0
68713;PMS7003;55690;51.566;19.198;2023-03-31T17:02:18;2;2;1
68713;PMS7003;55690;51.566;19.198;2023-03-31T17:06:21;4;1;1
68713;PMS7003;55690;51.566;19.198;2023-03-31T17:10:23;2;2;2
68713;PMS7003;55690;51.566;19.198;2023-03-31T17:14:26;0;0;0
68713;PMS7003;55690;51.566;19.198;2023-03-31T17:18:27;1;1;1
68713;PMS7003;55690;51.566;19.198;2023-03-31T17:22:28;2;2;1
68713;PMS7003;55690;51.566;19.198;2023-03-31T17:26:31;3;0;0
68713;PMS7003;55690;51.566;19.198;2023-03-31T17:30:34;0;0;0
68713;PMS7003;55690;51.566;19.198;2023-03-31T17:34:38;1;0;0
68713;PMS7003;55690;51.566;19.198;2023-03-31T17:38:39;1;1;0
68713;PMS7003;55690;51.566;19.198;2023-03-31T17:42:42;3;2;2
68713;PMS7003;55690;51.566;19.198;2023-03-31T17:46:44;3;3;3
68713;PMS7003;55690;51.566;19.198;2023-03-31T17:50:46;4;4;2
68713;PMS7003;55690;51.566;19.198;2023-03-31T17:54:47;5;5;3
68713;PMS7003;55690;51.566;19.198;2023-03-31T17:58:49;3;3;2
68713;PMS7003;55690;51.566;19.198;2023-03-31T18:02:51;5;4;3
68713;PMS7003;55690;51.566;19.198;2023-03-31T18:06:55;6;5;3
68713;PMS7003;55690;51.566;19.198;2023-03-31T18:10:57;5;3;2
68713;PMS7003;55690;51.566;19.198;2023-03-31T18:14:59;6;5;4
68713;PMS7003;55690;51.566;19.198;2023-03-31T18:19:03;4;3;3
68713;PMS7003;55690;51.566;19.198;2023-03-31T18:23:05;6;6;5
68713;PMS7003;55690;51.566;19.198;2023-03-31T18:27:06;13;6;6
68713;PMS7003;55690;51.566;19.198;2023-03-31T18:31:08;7;6;5
68713;PMS7003;55690;51.566;19.198;2023-03-31T18:35:10;5;5;4
68713;PMS7003;55690;51.566;19.198;2023-03-31T18:39:12;8;8;6
68713;PMS7003;55690;51.566;19.198;2023-03-31T18:43:13;8;6;6
68713;PMS7003;55690;51.566;19.198;2023-03-31T18:47:14;12;8;8
68713;PMS7003;55690;51.566;19.198;2023-03-31T18:51:16;15;10;8
68713;PMS7003;55690;51.566;19.198;2023-03-31T18:55:18;18;7;6
68713;PMS7003;55690;51.566;19.198;2023-03-31T18:59:19;12;11;10
68713;PMS7003;55690;51.566;19.198;2023-03-31T19:03:22;4;4;3
68713;PMS7003;55690;51.566;19.198;2023-03-31T19:07:25;17;8;7
68713;PMS7003;55690;51.566;19.198;2023-03-31T19:11:27;9;9;8
68713;PMS7003;55690;51.566;19.198;2023-03-31T19:15:29;7;7;6
68713;PMS7003;55690;51.566;19.198;2023-03-31T19:19:30;6;6;5
68713;PMS7003;55690;51.566;19.198;2023-03-31T19:23:32;8;5;5
68713;PMS7003;55690;51.566;19.198;2023-03-31T19:27:34;8;7;6
68713;PMS7003;55690;51.566;19.198;2023-03-31T19:31:35;3;3;3
68713;PMS7003;55690;51.566;19.198;2023-03-31T19:35:42;8;7;7
68713;PMS7003;55690;51.566;19.198;2023-03-31T19:39:45;5;5;3
68713;PMS7003;55690;51.566;19.198;2023-03-31T19:43:46;7;6;6
68713;PMS7003;55690;51.566;19.198;2023-03-31T19:47:48;13;5;5
68713;PMS7003;55690;51.566;19.198;2023-03-31T19:51:50;13;6;5
68713;PMS7003;55690;51.566;19.198;2023-03-31T19:55:56;5;5;5
68713;PMS7003;55690;51.566;19.198;2023-03-31T20:00:02;16;6;5
68713;PMS7003;55690;51.566;19.198;2023-03-31T20:04:04;4;4;4
68713;PMS7003;55690;51.566;19.198;2023-03-31T20:08:06;6;6;5
68713;PMS7003;55690;51.566;19.198;2023-03-31T20:12:07;6;5;4
68713;PMS7003;55690;51.566;19.198;2023-03-31T20:16:18;5;5;4
68713;PMS7003;55690;51.566;19.198;2023-03-31T20:20:20;5;5;4
68713;PMS7003;55690;51.566;19.198;2023-03-31T20:24:22;4;3;2
68713;PMS7003;55690;51.566;19.198;2023-03-31T20:28:23;5;4;3
68713;PMS7003;55690;51.566;19.198;2023-03-31T20:32:25;7;7;7
68713;PMS7003;55690;51.566;19.198;2023-03-31T20:36:27;1;1;1
68713;PMS7003;55690;51.566;19.198;2023-03-31T20:40:31;6;5;4
68713;PMS7003;55690;51.566;19.198;2023-03-31T20:44:32;3;2;2
68713;PMS7003;55690;51.566;19.198;2023-03-31T20:48:41;12;6;5
68713;PMS7003;55690;51.566;19.198;2023-03-31T20:52:45;2;2;2
68713;PMS7003;55690;51.566;19.198;2023-03-31T20:56:48;4;4;3
68713;PMS7003;55690;51.566;19.198;2023-03-31T21:00:55;6;5;4
68713;PMS7003;55690;51.566;19.198;2023-03-31T21:04:59;6;4;4
68713;PMS7003;55690;51.566;19.198;2023-03-31T21:09:00;4;3;2
68713;PMS7003;55690;51.566;19.198;2023-03-31T21:13:05;4;4;4
68713;PMS7003;55690;51.566;19.198;2023-03-31T21:17:11;5;4;3
68713;PMS7003;55690;51.566;19.198;2023-03-31T21:21:18;5;3;3
68713;PMS7003;55690;51.566;19.198;2023-03-31T21:25:24;3;3;2
68713;PMS7003;55690;51.566;19.198;2023-03-31T21:29:30;9;6;4
68713;PMS7003;55690;51.566;19.198;2023-03-31T21:33:37;9;4;2
68713;PMS7003;55690;51.566;19.198;2023-03-31T21:37:42;6;6;5
68713;PMS7003;55690;51.566;19.198;2023-03-31T21:41:48;4;4;3
68713;PMS7003;55690;51.566;19.198;2023-03-31T21:45:56;3;3;3
68713;PMS7003;55690;51.566;19.198;2023-03-31T21:50:01;8;8;6
68713;PMS7003;55690;51.566;19.198;2023-03-31T21:54:07;13;6;6
68713;PMS7003;55690;51.566;19.198;2023-03-31T21:58:13;4;4;3
68713;PMS7003;55690;51.566;19.198;2023-03-31T22:02:19;7;3;1
68713;PMS7003;55690;51.566;19.198;2023-03-31T22:06:26;5;5;3
68713;PMS7003;55690;51.566;19.198;2023-03-31T22:10:32;10;7;6
68713;PMS7003;55690;51.566;19.198;2023-03-31T22:14:38;9;5;4
68713;PMS7003;55690;51.566;19.198;2023-03-31T22:18:44;8;7;5
68713;PMS7003;55690;51.566;19.198;2023-03-31T22:22:50;10;10;8
68713;PMS7003;55690;51.566;19.198;2023-03-31T22:26:56;8;5;4
68713;PMS7003;55690;51.566;19.198;2023-03-31T22:31:02;10;9;6
68713;PMS7003;55690;51.566;19.198;2023-03-31T22:35:09;4;4;1
68713;PMS7003;55690;51.566;19.198;2023-03-31T22:39:15;7;7;6
68713;PMS7003;55690;51.566;19.198;2023-03-31T22:43:21;10;7;6
68713;PMS7003;55690;51.566;19.198;2023-03-31T22:47:27;17;7;6
68713;PMS7003;55690;51.566;19.198;2023-03-31T22:51:33;13;7;6
68713;PMS7003;55690;51.566;19.198;2023-03-31T22:55:43;6;6;4
68713;PMS7003;55690;51.566;19.198;2023-03-31T22:59:46;5;5;4
68713;PMS7003;55690;51.566;19.198;2023-03-31T23:03:52;10;6;5
68713;PMS7003;55690;51.566;19.198;2023-03-31T23:07:58;8;6;5
68713;PMS7003;55690;51.566;19.198;2023-03-31T23:12:04;19;8;7
68713;PMS7003;55690;51.566;19.198;2023-03-31T23:20:19;10;10;9
68713;PMS7003;55690;51.566;19.198;2023-03-31T23:24:23;11;10;7
68713;PMS7003;55690;51.566;19.198;2023-03-31T23:28:29;11;5;4
68713;PMS7003;55690;51.566;19.198;2023-03-31T23:32:35;13;8;6
68713;PMS7003;55690;51.566;19.198;2023-03-31T23:36:41;10;7;5
68713;PMS7003;55690;51.566;19.198;2023-03-31T23:40:47;7;5;4
68713;PMS7003;55690;51.566;19.198;2023-03-31T23:44:54;14;7;4
68713;PMS7003;55690;51.566;19.198;2023-03-31T23:49:00;10;10;6
68713;PMS7003;55690;51.566;19.198;2023-03-31T23:53:06;14;8;7
68713;PMS7003;55690;51.566;19.198;2023-03-31T23:57:12;5;5;5
